createdAt,value
2023-02-27T00:01:14.317Z,3.78
2023-02-27T00:03:41.536Z,2.72
2023-02-27T00:06:08.830Z,5.47
2023-02-27T00:08:36.210Z,5.18
2023-02-27T00:11:03.511Z,5.15
2023-02-27T00:13:30.925Z,6.80
2023-02-27T00:15:58.212Z,5.57
2023-02-27T00:18:25.460Z,4.55
2023-02-27T00:20:52.695Z,3.75
2023-02-27T00:23:19.949Z,4.80
2023-02-27T00:25:49.826Z,3.17
2023-02-27T00:28:17.164Z,4.65
2023-02-27T00:30:44.447Z,9.27
2023-02-27T00:33:11.711Z,3.53
2023-02-27T00:35:38.961Z,5.05
2023-02-27T00:38:06.586Z,4.10
2023-02-27T00:40:36.089Z,4.40
2023-02-27T00:43:04.358Z,4.05
2023-02-27T00:45:31.622Z,7.57
2023-02-27T00:47:58.871Z,2.72
2023-02-27T00:50:26.156Z,5.25
2023-02-27T00:52:54.043Z,4.65
2023-02-27T00:55:21.326Z,4.63
2023-02-27T00:57:48.650Z,3.35
2023-02-27T01:00:16.398Z,3.83
2023-02-27T01:02:43.675Z,3.63
2023-02-27T01:05:11.218Z,4.03
2023-02-27T01:07:38.584Z,4.97
2023-02-27T01:10:07.337Z,7.78
2023-02-27T01:12:34.673Z,4.10
2023-02-27T01:15:01.982Z,4.70
2023-02-27T01:17:29.208Z,2.95
2023-02-27T01:19:56.542Z,3.13
2023-02-27T01:22:24.572Z,3.63
2023-02-27T01:24:51.930Z,3.30
2023-02-27T01:27:19.371Z,4.93
2023-02-27T01:29:46.622Z,3.88
2023-02-27T01:32:14.128Z,3.70
2023-02-27T01:34:41.421Z,5.13
2023-02-27T01:37:08.870Z,5.70
2023-02-27T01:39:37.117Z,5.40
2023-02-27T01:42:04.382Z,5.70
2023-02-27T01:44:34.351Z,4.93
2023-02-27T01:47:01.589Z,5.13
2023-02-27T01:49:32.243Z,4.68
2023-02-27T01:52:03.321Z,4.88
2023-02-27T01:54:32.520Z,3.60
2023-02-27T01:57:22.675Z,5.47
2023-02-27T01:59:50.008Z,7.60
2023-02-27T02:02:26.701Z,5.70
2023-02-27T02:04:55.283Z,4.57
2023-02-27T02:07:22.712Z,3.75
2023-02-27T02:09:54.119Z,3.90
2023-02-27T02:12:35.093Z,4.90
2023-02-27T02:15:03.285Z,4.65
2023-02-27T02:17:35.566Z,8.15
2023-02-27T02:20:27.572Z,3.97
2023-02-27T02:23:32.365Z,6.88
2023-02-27T02:26:44.354Z,8.20
2023-02-27T02:29:33.508Z,5.47
2023-02-27T02:35:19.697Z,4.90
2023-02-27T02:38:05.844Z,5.43
2023-02-27T02:40:35.996Z,6.05
2023-02-27T02:43:15.499Z,7.22
2023-02-27T02:46:02.002Z,6.55
2023-02-27T02:48:34.810Z,3.85
2023-02-27T02:51:10.319Z,3.40
2023-02-27T02:54:09.710Z,11.40
2023-02-27T02:56:54.100Z,6.03
2023-02-27T02:59:41.845Z,4.90
2023-02-27T03:02:16.442Z,6.88
2023-02-27T03:04:53.917Z,4.05
2023-02-27T03:07:26.294Z,6.57
2023-02-27T03:10:14.892Z,4.20
2023-02-27T03:12:45.223Z,8.45
2023-02-27T03:15:18.947Z,8.98
2023-02-27T03:18:07.610Z,4.68
2023-02-27T03:20:49.125Z,7.20
2023-02-27T03:23:28.077Z,8.63
2023-02-27T03:25:58.447Z,4.90
2023-02-27T03:28:29.744Z,8.20
2023-02-27T03:31:02.152Z,7.03
2023-02-27T03:33:33.896Z,6.22
2023-02-27T03:36:01.160Z,6.53
2023-02-27T03:39:08.008Z,7.35
2023-02-27T03:41:36.702Z,7.45
2023-02-27T03:44:19.578Z,4.90
2023-02-27T03:46:46.814Z,6.93
2023-02-27T03:49:16.293Z,5.78
2023-02-27T03:51:51.023Z,5.90
2023-02-27T03:54:27.408Z,4.70
2023-02-27T03:57:09.069Z,10.43
2023-02-27T03:59:38.979Z,6.50
2023-02-27T04:02:06.636Z,5.82
2023-02-27T04:04:35.694Z,4.60
2023-02-27T04:07:22.501Z,4.45
2023-02-27T04:10:23.690Z,6.70
2023-02-27T04:13:18.363Z,6.68
2023-02-27T04:16:01.038Z,9.10
2023-02-27T04:19:00.095Z,7.78
2023-02-27T04:21:58.623Z,3.90
2023-02-27T04:24:34.746Z,5.85
2023-02-27T04:27:24.520Z,8.40
2023-02-27T04:30:06.596Z,9.35
2023-02-27T04:32:45.080Z,6.68
2023-02-27T04:35:36.238Z,7.82
2023-02-27T04:38:30.353Z,7.88
2023-02-27T04:41:03.326Z,6.20
2023-02-27T04:43:32.000Z,5.22
2023-02-27T04:46:03.211Z,6.32
2023-02-27T04:48:35.687Z,6.65
2023-02-27T04:51:12.630Z,7.38
2023-02-27T04:53:49.013Z,5.07
2023-02-27T04:56:27.902Z,6.82
2023-02-27T04:59:11.710Z,6.45
2023-02-27T05:01:41.986Z,8.63
2023-02-27T05:04:12.246Z,22.80
2023-02-27T05:06:43.729Z,14.70
2023-02-27T05:09:38.731Z,38.40
2023-02-27T05:12:11.980Z,15.15
2023-02-27T05:14:48.215Z,15.98
2023-02-27T05:17:32.054Z,9.85
2023-02-27T05:20:01.587Z,6.28
2023-02-27T05:23:05.926Z,10.48
2023-02-27T05:25:47.149Z,8.13
2023-02-27T05:28:25.785Z,7.68
2023-02-27T05:31:00.855Z,9.73
2023-02-27T05:33:36.692Z,10.48
2023-02-27T05:36:18.074Z,6.45
2023-02-27T05:42:15.735Z,9.35
2023-02-27T05:44:57.444Z,12.18
2023-02-27T05:47:27.792Z,8.50
2023-02-27T05:49:59.837Z,27.45
2023-02-27T05:52:31.512Z,58.97
2023-02-27T05:55:19.292Z,45.10
2023-02-27T05:57:55.983Z,29.38
2023-02-27T06:00:40.591Z,23.20
2023-02-27T06:03:10.784Z,14.13
2023-02-27T06:05:39.559Z,14.70
2023-02-27T06:08:16.194Z,8.88
2023-02-27T06:10:43.449Z,14.45
2023-02-27T06:13:14.344Z,9.95
2023-02-27T06:15:41.642Z,9.90
2023-02-27T06:18:11.158Z,6.65
2023-02-27T06:20:41.359Z,10.60
2023-02-27T06:23:09.255Z,8.77
2023-02-27T06:25:36.628Z,9.27
2023-02-27T06:28:04.570Z,9.82
2023-02-27T06:30:31.965Z,8.57
2023-02-27T06:33:04.000Z,7.07
2023-02-27T06:35:31.345Z,14.75
2023-02-27T06:37:58.697Z,14.23
2023-02-27T06:40:26.345Z,15.73
2023-02-27T06:42:53.830Z,9.18
2023-02-27T06:45:21.093Z,6.88
2023-02-27T06:47:48.366Z,5.72
2023-02-27T06:50:16.011Z,9.20
2023-02-27T06:52:43.236Z,10.50
2023-02-27T06:55:11.047Z,9.25
2023-02-27T06:57:38.428Z,7.05
2023-02-27T07:00:11.820Z,8.40
2023-02-27T07:02:39.311Z,12.32
2023-02-27T07:05:08.204Z,8.10
2023-02-27T07:07:37.875Z,15.80
2023-02-27T07:10:11.272Z,12.02
2023-02-27T07:12:39.117Z,10.77
2023-02-27T07:15:07.204Z,9.07
2023-02-27T07:17:34.551Z,10.20
2023-02-27T07:20:01.957Z,10.85
2023-02-27T07:22:29.620Z,8.10
2023-02-27T07:24:56.877Z,11.52
2023-02-27T07:27:24.497Z,8.82
2023-02-27T07:29:53.101Z,9.30
2023-02-27T07:32:20.684Z,8.30
2023-02-27T07:34:48.127Z,13.40
2023-02-27T07:37:15.463Z,13.38
2023-02-27T07:39:42.770Z,11.13
2023-02-27T07:42:10.478Z,10.60
2023-02-27T07:44:46.313Z,11.35
2023-02-27T07:47:13.743Z,14.70
2023-02-27T07:49:40.979Z,8.77
2023-02-27T07:52:08.415Z,6.07
2023-02-27T07:54:37.666Z,7.82
2023-02-27T07:59:32.346Z,11.18
2023-02-27T08:01:59.672Z,11.60
2023-02-27T08:04:28.289Z,5.53
2023-02-27T08:06:55.583Z,10.45
2023-02-27T08:09:23.981Z,8.55
2023-02-27T08:11:52.512Z,9.70
2023-02-27T08:14:20.610Z,12.48
2023-02-27T08:16:48.025Z,7.53
2023-02-27T08:19:15.504Z,9.32
2023-02-27T08:21:43.055Z,9.60
2023-02-27T08:24:10.691Z,5.65
2023-02-27T08:26:38.130Z,9.40
2023-02-27T08:29:05.354Z,5.72
2023-02-27T08:31:33.023Z,4.65
2023-02-27T08:34:09.929Z,7.00
2023-02-27T08:36:38.497Z,12.77
2023-02-27T08:39:07.052Z,6.60
2023-02-27T08:41:35.056Z,6.28
2023-02-27T08:44:02.813Z,8.20
2023-02-27T08:46:30.243Z,11.27
2023-02-27T08:48:59.587Z,8.73
2023-02-27T08:51:27.576Z,9.77
2023-02-27T08:53:58.806Z,6.72
2023-02-27T08:56:27.995Z,10.57
2023-02-27T09:01:23.916Z,4.43
2023-02-27T09:03:52.454Z,15.95
2023-02-27T09:06:19.948Z,10.33
2023-02-27T09:08:47.227Z,9.88
2023-02-27T09:11:14.450Z,8.10
2023-02-27T09:13:41.750Z,9.25
2023-02-27T09:16:09.136Z,7.47
2023-02-27T09:18:36.431Z,6.57
2023-02-27T09:21:03.725Z,7.97
2023-02-27T09:23:30.934Z,9.27
2023-02-27T09:25:58.452Z,10.73
2023-02-27T09:28:25.716Z,9.50
2023-02-27T09:30:53.011Z,10.82
2023-02-27T09:33:20.255Z,7.43
2023-02-27T09:35:47.615Z,7.72
2023-02-27T09:38:15.065Z,8.90
2023-02-27T09:40:43.464Z,11.40
2023-02-27T09:43:22.721Z,6.80
2023-02-27T09:45:54.353Z,9.60
2023-02-27T09:48:30.332Z,9.43
2023-02-27T09:50:58.367Z,10.10
2023-02-27T09:53:39.551Z,10.75
2023-02-27T09:56:35.864Z,11.18
2023-02-27T09:59:05.916Z,11.50
2023-02-27T10:01:43.986Z,15.50
2023-02-27T10:04:39.211Z,9.38
2023-02-27T10:07:28.288Z,8.80
2023-02-27T10:10:23.331Z,8.27
2023-02-27T10:13:15.503Z,12.13
2023-02-27T10:15:50.520Z,10.68
2023-02-27T10:18:30.471Z,12.98
2023-02-27T10:21:07.235Z,8.63
2023-02-27T10:23:51.418Z,14.63
2023-02-27T10:26:24.220Z,10.00
2023-02-27T10:28:51.443Z,7.00
2023-02-27T10:31:25.665Z,12.55
2023-02-27T10:33:53.292Z,13.50
2023-02-27T10:36:33.041Z,10.73
2023-02-27T10:39:14.134Z,9.18
2023-02-27T10:41:41.533Z,6.88
2023-02-27T10:44:10.514Z,11.02
2023-02-27T10:46:40.889Z,11.27
2023-02-27T10:49:18.292Z,10.13
2023-02-27T10:52:07.443Z,8.02
2023-02-27T10:54:35.578Z,7.40
2023-02-27T10:57:05.386Z,11.20
2023-02-27T10:59:34.570Z,8.25
2023-02-27T11:02:20.827Z,7.22
2023-02-27T11:04:53.884Z,5.13
2023-02-27T11:07:38.704Z,8.43
2023-02-27T11:10:15.207Z,9.75
2023-02-27T11:13:02.927Z,11.02
2023-02-27T11:15:36.124Z,8.13
2023-02-27T11:18:27.378Z,8.50
2023-02-27T11:21:09.400Z,13.93
2023-02-27T11:23:36.960Z,8.20
2023-02-27T11:26:23.209Z,5.07
2023-02-27T11:29:18.304Z,6.10
2023-02-27T11:31:54.521Z,3.40
2023-02-27T11:34:28.735Z,6.75
2023-02-27T11:37:05.985Z,4.75
2023-02-27T11:39:49.220Z,4.88
2023-02-27T11:42:20.744Z,5.55
2023-02-27T11:44:56.873Z,7.55
2023-02-27T11:47:27.934Z,8.98
2023-02-27T11:50:20.244Z,7.57
2023-02-27T11:53:20.408Z,9.45
2023-02-27T11:55:48.138Z,8.90
2023-02-27T11:58:22.098Z,3.72
2023-02-27T12:00:53.002Z,7.35
2023-02-27T12:03:25.510Z,5.32
2023-02-27T12:05:59.085Z,3.42
2023-02-27T12:08:46.150Z,7.22
2023-02-27T12:11:23.998Z,4.20
2023-02-27T12:14:04.860Z,2.13
2023-02-27T12:16:46.768Z,3.30
2023-02-27T12:19:26.632Z,2.92
2023-02-27T12:21:58.371Z,1.70
2023-02-27T12:24:40.859Z,4.00
2023-02-27T12:27:19.896Z,1.58
2023-02-27T12:30:05.931Z,0.80
2023-02-27T12:32:42.430Z,2.75
2023-02-27T12:35:22.779Z,1.67
2023-02-27T12:37:52.951Z,5.43
2023-02-27T12:40:22.807Z,2.70
2023-02-27T12:43:02.112Z,1.27
2023-02-27T12:48:41.139Z,2.00
2023-02-27T12:51:35.714Z,1.17
2023-02-27T12:54:29.785Z,1.60
2023-02-27T12:57:19.094Z,2.20
2023-02-27T13:02:35.660Z,2.95
2023-02-27T13:05:33.793Z,1.35
2023-02-27T13:08:23.794Z,1.83
2023-02-27T13:11:36.450Z,1.40
2023-02-27T13:14:38.335Z,1.05
2023-02-27T13:17:18.898Z,1.42
2023-02-27T13:20:14.608Z,2.15
2023-02-27T13:23:07.872Z,0.88
2023-02-27T13:25:39.416Z,1.13
2023-02-27T13:28:12.364Z,1.38
2023-02-27T13:30:59.730Z,2.00
2023-02-27T13:33:51.767Z,1.35
2023-02-27T13:36:27.611Z,2.40
2023-02-27T13:38:56.251Z,0.90
2023-02-27T13:41:29.451Z,3.13
2023-02-27T13:43:57.553Z,1.92
2023-02-27T13:46:28.537Z,0.75
2023-02-27T13:49:05.311Z,5.60
2023-02-27T13:51:35.603Z,5.28
2023-02-27T13:54:19.176Z,1.75
2023-02-27T13:57:01.138Z,2.88
2023-02-27T13:59:34.751Z,3.80
2023-02-27T14:02:09.851Z,5.80
2023-02-27T14:04:50.061Z,1.60
2023-02-27T14:07:21.599Z,2.22
2023-02-27T14:09:51.912Z,2.10
2023-02-27T14:12:44.331Z,3.53
2023-02-27T14:15:18.269Z,2.88
2023-02-27T14:17:49.522Z,3.45
2023-02-27T14:20:19.864Z,1.23
2023-02-27T14:23:17.417Z,3.17
2023-02-27T14:26:05.084Z,2.55
2023-02-27T14:28:36.557Z,1.80
2023-02-27T14:31:22.616Z,1.85
2023-02-27T14:33:55.179Z,4.35
2023-02-27T14:36:30.500Z,2.38
2023-02-27T14:38:59.324Z,2.78
2023-02-27T14:41:48.316Z,3.15
2023-02-27T14:44:27.896Z,2.20
2023-02-27T14:46:57.544Z,3.17
2023-02-27T14:49:32.758Z,1.27
2023-02-27T14:52:25.078Z,2.45
2023-02-27T14:54:53.685Z,1.63
2023-02-27T14:57:26.986Z,7.70
2023-02-27T14:59:55.127Z,2.92
2023-02-27T15:02:30.650Z,1.23
2023-02-27T15:05:03.991Z,2.42
2023-02-27T15:07:32.706Z,1.02
2023-02-27T15:10:04.210Z,1.30
2023-02-27T15:12:32.376Z,2.33
2023-02-27T15:15:01.427Z,1.65
2023-02-27T15:17:39.208Z,4.22
2023-02-27T15:20:24.932Z,1.75
2023-02-27T15:22:54.450Z,3.88
2023-02-27T15:25:36.606Z,6.38
2023-02-27T15:28:18.063Z,2.85
2023-02-27T15:30:51.956Z,11.52
2023-02-27T15:33:22.522Z,10.82
2023-02-27T15:35:49.898Z,4.45
2023-02-27T15:38:28.424Z,10.85
2023-02-27T15:40:57.489Z,8.27
2023-02-27T15:43:26.503Z,5.10
2023-02-27T15:45:55.945Z,3.42
2023-02-27T15:50:58.461Z,7.10
2023-02-27T15:53:27.733Z,10.52
2023-02-27T15:56:08.683Z,2.50
2023-02-27T15:58:49.008Z,8.38
2023-02-27T16:01:28.788Z,10.25
2023-02-27T16:04:07.582Z,16.02
2023-02-27T16:06:38.479Z,3.70
2023-02-27T16:09:19.166Z,6.00
2023-02-27T16:11:46.529Z,12.15
2023-02-27T16:14:41.046Z,6.85
2023-02-27T16:17:25.865Z,4.68
2023-02-27T16:19:54.470Z,7.05
2023-02-27T16:22:22.738Z,3.30
2023-02-27T16:24:50.502Z,5.30
2023-02-27T16:27:27.912Z,4.07
2023-02-27T16:29:57.532Z,3.65
2023-02-27T16:32:46.650Z,6.43
2023-02-27T16:35:21.035Z,5.97
2023-02-27T16:37:49.249Z,7.32
2023-02-27T16:40:22.524Z,8.05
2023-02-27T16:42:52.872Z,8.18
2023-02-27T16:45:31.245Z,6.05
2023-02-27T16:48:00.356Z,7.80
2023-02-27T16:50:41.448Z,7.78
2023-02-27T16:53:09.003Z,6.72
2023-02-27T16:55:40.481Z,8.35
2023-02-27T16:58:11.475Z,9.02
2023-02-27T17:00:38.766Z,10.32
2023-02-27T17:03:09.213Z,6.95
2023-02-27T17:05:36.694Z,18.45
2023-02-27T17:08:04.506Z,11.00
2023-02-27T17:10:32.041Z,25.55
2023-02-27T17:12:59.266Z,20.67
2023-02-27T17:15:27.722Z,17.80
2023-02-27T17:17:55.192Z,14.30
2023-02-27T17:20:23.121Z,16.13
2023-02-27T17:22:50.575Z,17.15
2023-02-27T17:25:18.122Z,12.05
2023-02-27T17:27:45.341Z,13.32
2023-02-27T17:30:13.722Z,9.57
2023-02-27T17:32:41.196Z,9.82
2023-02-27T17:35:08.961Z,9.52
2023-02-27T17:37:36.554Z,6.40
2023-02-27T17:40:05.266Z,4.32
2023-02-27T17:42:32.979Z,7.07
2023-02-27T17:45:01.327Z,14.68
2023-02-27T17:47:28.913Z,9.45
2023-02-27T17:49:56.192Z,11.95
2023-02-27T17:52:23.473Z,15.23
2023-02-27T17:54:51.249Z,8.55
2023-02-27T17:57:19.983Z,8.82
2023-02-27T17:59:50.311Z,10.50
2023-02-27T18:02:17.839Z,14.20
2023-02-27T18:04:45.187Z,10.07
2023-02-27T18:07:12.853Z,9.68
2023-02-27T18:09:40.272Z,12.65
2023-02-27T18:12:07.616Z,19.25
2023-02-27T18:14:36.321Z,11.60
2023-02-27T18:17:03.999Z,12.55
2023-02-27T18:19:32.548Z,11.57
2023-02-27T18:22:00.590Z,12.73
2023-02-27T18:24:27.795Z,11.73
2023-02-27T18:26:55.086Z,16.63
2023-02-27T18:29:22.590Z,12.55
2023-02-27T18:31:53.455Z,15.48
2023-02-27T18:34:21.476Z,22.95
2023-02-27T18:36:48.829Z,22.15
2023-02-27T18:39:16.064Z,26.80
2023-02-27T18:41:43.810Z,20.95
2023-02-27T18:44:12.410Z,25.40
2023-02-27T18:46:40.268Z,37.53
2023-02-27T18:49:07.739Z,37.28
2023-02-27T18:51:35.000Z,41.05
2023-02-27T18:54:04.441Z,36.45
2023-02-27T18:59:05.085Z,50.38
2023-02-27T19:01:34.983Z,49.42
2023-02-27T19:04:04.805Z,44.70
2023-02-27T19:06:38.925Z,45.72
2023-02-27T19:09:08.709Z,34.90
2023-02-27T19:11:36.865Z,29.17
2023-02-27T19:14:07.282Z,25.63
2023-02-27T19:16:35.138Z,27.95
2023-02-27T19:19:03.710Z,33.60
2023-02-27T19:21:31.792Z,24.67
2023-02-27T19:23:59.300Z,25.98
2023-02-27T19:26:26.908Z,31.33
2023-02-27T19:28:55.714Z,24.40
2023-02-27T19:31:24.516Z,37.07
2023-02-27T19:33:52.119Z,28.73
2023-02-27T19:36:21.669Z,23.73
2023-02-27T19:38:49.219Z,21.50
2023-02-27T19:41:17.532Z,23.48
2023-02-27T19:43:44.922Z,18.20
2023-02-27T19:46:18.406Z,22.95
2023-02-27T19:48:46.431Z,27.02
2023-02-27T19:51:14.831Z,20.30
2023-02-27T19:53:51.088Z,30.25
2023-02-27T19:56:20.977Z,24.38
2023-02-27T19:58:48.254Z,23.73
2023-02-27T20:01:26.412Z,25.33
2023-02-27T20:03:55.791Z,26.33
2023-02-27T20:06:25.560Z,22.10
2023-02-27T20:08:53.247Z,17.80
2023-02-27T20:11:21.749Z,17.52
2023-02-27T20:13:50.234Z,16.40
2023-02-27T20:16:19.424Z,16.10
2023-02-27T20:18:46.756Z,15.82
2023-02-27T20:21:18.027Z,11.73
2023-02-27T20:23:46.528Z,15.93
2023-02-27T20:26:35.036Z,14.23
2023-02-27T20:29:08.837Z,11.88
2023-02-27T20:31:38.080Z,15.65
2023-02-27T20:34:07.018Z,13.57
2023-02-27T20:36:35.331Z,14.75
2023-02-27T20:39:03.667Z,14.68
2023-02-27T20:41:33.168Z,10.65
2023-02-27T20:44:00.984Z,10.02
2023-02-27T20:46:29.408Z,8.18
2023-02-27T20:49:01.483Z,10.17
2023-02-27T20:51:31.554Z,10.90
2023-02-27T20:54:00.141Z,10.55
2023-02-27T20:56:33.541Z,9.37
2023-02-27T20:59:03.038Z,10.35
2023-02-27T21:01:30.834Z,12.23
2023-02-27T21:04:00.629Z,11.27
2023-02-27T21:06:28.508Z,10.30
2023-02-27T21:08:56.738Z,14.68
2023-02-27T21:11:27.979Z,12.77
2023-02-27T21:13:56.588Z,12.10
2023-02-27T21:16:25.680Z,11.43
2023-02-27T21:18:54.027Z,9.45
2023-02-27T21:21:33.216Z,19.45
2023-02-27T21:24:03.356Z,14.70
2023-02-27T21:26:37.848Z,14.25
2023-02-27T21:29:12.321Z,11.05
2023-02-27T21:31:41.309Z,15.27
2023-02-27T21:34:13.540Z,16.75
2023-02-27T21:36:42.841Z,19.05
2023-02-27T21:41:45.649Z,15.68
2023-02-27T21:44:16.762Z,13.90
2023-02-27T21:46:44.212Z,17.25
2023-02-27T21:49:23.285Z,13.80
2023-02-27T21:51:50.998Z,11.82
2023-02-27T21:54:19.449Z,13.35
2023-02-27T21:56:48.425Z,13.83
2023-02-27T21:59:16.972Z,16.73
2023-02-27T22:01:47.419Z,13.52
2023-02-27T22:04:18.986Z,14.07
2023-02-27T22:06:47.086Z,11.93
2023-02-27T22:09:14.483Z,10.13
2023-02-27T22:11:42.498Z,11.63
2023-02-27T22:14:10.740Z,11.40
2023-02-27T22:16:38.111Z,12.35
2023-02-27T22:19:10.643Z,14.52
2023-02-27T22:21:38.795Z,13.95
2023-02-27T22:24:07.158Z,13.20
2023-02-27T22:26:34.523Z,10.13
2023-02-27T22:29:01.836Z,10.05
2023-02-27T22:31:32.452Z,12.45
2023-02-27T22:34:12.105Z,14.55
2023-02-27T22:36:41.122Z,13.82
2023-02-27T22:39:08.534Z,15.15
2023-02-27T22:41:37.725Z,13.60
2023-02-27T22:44:05.795Z,13.35
2023-02-27T22:46:38.777Z,13.40
2023-02-27T22:49:08.676Z,18.42
2023-02-27T22:51:36.337Z,14.20
2023-02-27T22:54:05.071Z,10.27
2023-02-27T22:56:33.136Z,12.15
2023-02-27T22:59:00.319Z,17.92
2023-02-27T23:01:32.139Z,14.50
2023-02-27T23:04:01.610Z,15.85
2023-02-27T23:09:05.439Z,11.75
2023-02-27T23:11:32.655Z,16.05
2023-02-27T23:13:59.836Z,16.23
2023-02-27T23:16:27.079Z,17.48
2023-02-27T23:18:56.784Z,13.93
2023-02-27T23:21:34.616Z,12.77
2023-02-27T23:24:06.394Z,12.48
2023-02-27T23:26:39.900Z,16.10
2023-02-27T23:29:07.513Z,12.38
2023-02-27T23:31:35.808Z,14.73
2023-02-27T23:34:05.796Z,18.88
2023-02-27T23:36:33.792Z,13.88
2023-02-27T23:39:02.805Z,21.88
2023-02-27T23:41:30.448Z,13.73
2023-02-27T23:44:16.317Z,20.20
2023-02-27T23:46:43.501Z,19.58
2023-02-27T23:49:11.163Z,17.58
2023-02-27T23:51:38.369Z,16.05
2023-02-27T23:54:05.571Z,24.33
2023-02-27T23:56:32.833Z,22.20
2023-02-27T23:59:07.137Z,24.58
